sensor_id;sensor_type;location;lat;lon;timestamp;P1;durP1;ratioP1;P2;durP2;ratioP2
69989;SDS011;57331;52.054;5.294;2023-07-08T00:02:11;13.30;;;4.27;;
69989;SDS011;57331;52.054;5.294;2023-07-08T00:04:39;9.23;;;3.97;;
69989;SDS011;57331;52.054;5.294;2023-07-08T00:07:10;8.48;;;3.70;;
69989;SDS011;57331;52.054;5.294;2023-07-08T00:09:39;10.55;;;4.47;;
69989;SDS011;57331;52.054;5.294;2023-07-08T00:12:12;7.30;;;3.88;;
69989;SDS011;57331;52.054;5.294;2023-07-08T00:14:39;7.53;;;3.83;;
69989;SDS011;57331;52.054;5.294;2023-07-08T00:17:10;7.68;;;3.90;;
69989;SDS011;57331;52.054;5.294;2023-07-08T00:19:38;10.88;;;3.65;;
69989;SDS011;57331;52.054;5.294;2023-07-08T00:22:11;7.85;;;3.92;;
69989;SDS011;57331;52.054;5.294;2023-07-08T00:24:43;8.63;;;3.83;;
69989;SDS011;57331;52.054;5.294;2023-07-08T00:27:10;7.70;;;3.60;;
69989;SDS011;57331;52.054;5.294;2023-07-08T00:29:41;8.70;;;4.03;;
69989;SDS011;57331;52.054;5.294;2023-07-08T00:32:13;6.60;;;3.33;;
69989;SDS011;57331;52.054;5.294;2023-07-08T00:34:41;8.55;;;3.80;;
69989;SDS011;57331;52.054;5.294;2023-07-08T00:37:10;8.20;;;4.15;;
69989;SDS011;57331;52.054;5.294;2023-07-08T00:39:38;10.70;;;3.70;;
69989;SDS011;57331;52.054;5.294;2023-07-08T00:42:13;8.35;;;4.00;;
69989;SDS011;57331;52.054;5.294;2023-07-08T00:44:43;9.60;;;3.90;;
69989;SDS011;57331;52.054;5.294;2023-07-08T00:47:12;7.10;;;3.60;;
69989;SDS011;57331;52.054;5.294;2023-07-08T00:49:45;8.48;;;4.00;;
69989;SDS011;57331;52.054;5.294;2023-07-08T00:52:26;10.03;;;3.90;;
69989;SDS011;57331;52.054;5.294;2023-07-08T00:54:55;9.80;;;4.38;;
69989;SDS011;57331;52.054;5.294;2023-07-08T00:57:26;8.68;;;4.03;;
69989;SDS011;57331;52.054;5.294;2023-07-08T01:00:04;9.07;;;4.20;;
69989;SDS011;57331;52.054;5.294;2023-07-08T01:02:32;9.93;;;3.70;;
69989;SDS011;57331;52.054;5.294;2023-07-08T01:05:08;7.72;;;3.75;;
69989;SDS011;57331;52.054;5.294;2023-07-08T01:07:42;8.18;;;4.00;;
69989;SDS011;57331;52.054;5.294;2023-07-08T01:10:14;9.63;;;3.78;;
69989;SDS011;57331;52.054;5.294;2023-07-08T01:12:49;8.57;;;3.88;;
69989;SDS011;57331;52.054;5.294;2023-07-08T01:15:21;9.32;;;3.60;;
69989;SDS011;57331;52.054;5.294;2023-07-08T01:17:53;14.07;;;4.10;;
69989;SDS011;57331;52.054;5.294;2023-07-08T01:20:21;7.38;;;3.90;;
69989;SDS011;57331;52.054;5.294;2023-07-08T01:22:49;8.98;;;3.65;;
69989;SDS011;57331;52.054;5.294;2023-07-08T01:25:17;9.10;;;3.70;;
69989;SDS011;57331;52.054;5.294;2023-07-08T01:27:45;8.57;;;3.88;;
69989;SDS011;57331;52.054;5.294;2023-07-08T01:30:15;8.97;;;3.57;;
69989;SDS011;57331;52.054;5.294;2023-07-08T01:32:44;9.30;;;3.55;;
69989;SDS011;57331;52.054;5.294;2023-07-08T01:35:16;8.52;;;3.90;;
69989;SDS011;57331;52.054;5.294;2023-07-08T01:37:44;10.38;;;3.80;;
69989;SDS011;57331;52.054;5.294;2023-07-08T01:40:35;9.80;;;4.32;;
69989;SDS011;57331;52.054;5.294;2023-07-08T01:43:04;8.32;;;3.80;;
69989;SDS011;57331;52.054;5.294;2023-07-08T01:45:36;7.20;;;3.83;;
69989;SDS011;57331;52.054;5.294;2023-07-08T01:48:07;10.05;;;3.78;;
69989;SDS011;57331;52.054;5.294;2023-07-08T01:50:38;7.45;;;3.90;;
69989;SDS011;57331;52.054;5.294;2023-07-08T01:53:29;8.07;;;3.50;;
69989;SDS011;57331;52.054;5.294;2023-07-08T01:56:01;8.27;;;3.65;;
69989;SDS011;57331;52.054;5.294;2023-07-08T01:58:29;8.30;;;4.20;;
69989;SDS011;57331;52.054;5.294;2023-07-08T02:00:57;10.88;;;3.55;;
69989;SDS011;57331;52.054;5.294;2023-07-08T02:03:24;9.93;;;4.13;;
69989;SDS011;57331;52.054;5.294;2023-07-08T02:05:54;7.53;;;3.40;;
69989;SDS011;57331;52.054;5.294;2023-07-08T02:08:21;8.65;;;3.85;;
69989;SDS011;57331;52.054;5.294;2023-07-08T02:10:50;8.80;;;4.47;;
69989;SDS011;57331;52.054;5.294;2023-07-08T02:13:19;7.60;;;3.45;;
69989;SDS011;57331;52.054;5.294;2023-07-08T02:15:47;6.93;;;3.60;;
69989;SDS011;57331;52.054;5.294;2023-07-08T02:18:14;7.82;;;4.00;;
69989;SDS011;57331;52.054;5.294;2023-07-08T02:20:44;8.50;;;3.95;;
69989;SDS011;57331;52.054;5.294;2023-07-08T02:23:12;13.15;;;3.58;;
69989;SDS011;57331;52.054;5.294;2023-07-08T02:25:40;8.20;;;4.03;;
69989;SDS011;57331;52.054;5.294;2023-07-08T02:28:07;7.88;;;3.75;;
69989;SDS011;57331;52.054;5.294;2023-07-08T02:30:35;8.18;;;4.03;;
69989;SDS011;57331;52.054;5.294;2023-07-08T02:33:03;11.40;;;3.53;;
69989;SDS011;57331;52.054;5.294;2023-07-08T02:35:30;10.30;;;3.72;;
69989;SDS011;57331;52.054;5.294;2023-07-08T02:37:58;7.55;;;3.42;;
69989;SDS011;57331;52.054;5.294;2023-07-08T02:40:25;6.90;;;3.30;;
69989;SDS011;57331;52.054;5.294;2023-07-08T02:42:53;10.82;;;4.13;;
69989;SDS011;57331;52.054;5.294;2023-07-08T02:45:20;6.60;;;3.80;;
69989;SDS011;57331;52.054;5.294;2023-07-08T02:47:48;13.27;;;3.83;;
69989;SDS011;57331;52.054;5.294;2023-07-08T02:50:15;7.35;;;3.45;;
69989;SDS011;57331;52.054;5.294;2023-07-08T02:52:43;8.68;;;3.97;;
69989;SDS011;57331;52.054;5.294;2023-07-08T02:55:10;8.48;;;3.95;;
69989;SDS011;57331;52.054;5.294;2023-07-08T02:57:37;8.07;;;3.67;;
69989;SDS011;57331;52.054;5.294;2023-07-08T03:00:04;11.05;;;4.47;;
69989;SDS011;57331;52.054;5.294;2023-07-08T03:02:32;8.90;;;3.83;;
69989;SDS011;57331;52.054;5.294;2023-07-08T03:05:00;8.77;;;3.72;;
69989;SDS011;57331;52.054;5.294;2023-07-08T03:07:27;10.35;;;3.60;;
69989;SDS011;57331;52.054;5.294;2023-07-08T03:09:54;7.75;;;3.63;;
69989;SDS011;57331;52.054;5.294;2023-07-08T03:12:22;7.72;;;3.92;;
69989;SDS011;57331;52.054;5.294;2023-07-08T03:14:49;8.50;;;3.80;;
69989;SDS011;57331;52.054;5.294;2023-07-08T03:17:16;7.22;;;3.80;;
69989;SDS011;57331;52.054;5.294;2023-07-08T03:19:46;10.85;;;4.18;;
69989;SDS011;57331;52.054;5.294;2023-07-08T03:22:13;10.07;;;4.07;;
69989;SDS011;57331;52.054;5.294;2023-07-08T03:24:40;11.10;;;4.05;;
69989;SDS011;57331;52.054;5.294;2023-07-08T03:27:15;8.27;;;3.97;;
69989;SDS011;57331;52.054;5.294;2023-07-08T03:29:44;7.88;;;3.80;;
69989;SDS011;57331;52.054;5.294;2023-07-08T03:32:11;8.27;;;3.97;;
69989;SDS011;57331;52.054;5.294;2023-07-08T03:34:40;7.97;;;3.88;;
69989;SDS011;57331;52.054;5.294;2023-07-08T03:37:08;9.05;;;3.90;;
69989;SDS011;57331;52.054;5.294;2023-07-08T03:39:36;11.88;;;4.00;;
69989;SDS011;57331;52.054;5.294;2023-07-08T03:42:03;7.70;;;3.63;;
69989;SDS011;57331;52.054;5.294;2023-07-08T03:44:31;8.43;;;3.92;;
69989;SDS011;57331;52.054;5.294;2023-07-08T03:46:58;7.28;;;3.38;;
69989;SDS011;57331;52.054;5.294;2023-07-08T03:49:26;6.60;;;3.13;;
69989;SDS011;57331;52.054;5.294;2023-07-08T03:51:55;8.77;;;3.70;;
69989;SDS011;57331;52.054;5.294;2023-07-08T03:54:22;8.73;;;3.78;;
69989;SDS011;57331;52.054;5.294;2023-07-08T03:56:53;8.13;;;3.97;;
69989;SDS011;57331;52.054;5.294;2023-07-08T03:59:23;10.05;;;4.20;;
69989;SDS011;57331;52.054;5.294;2023-07-08T04:01:53;14.52;;;3.90;;
69989;SDS011;57331;52.054;5.294;2023-07-08T04:04:20;8.10;;;3.83;;
69989;SDS011;57331;52.054;5.294;2023-07-08T04:06:48;8.05;;;3.30;;
69989;SDS011;57331;52.054;5.294;2023-07-08T04:09:16;10.48;;;4.03;;
69989;SDS011;57331;52.054;5.294;2023-07-08T04:11:43;7.85;;;3.80;;
69989;SDS011;57331;52.054;5.294;2023-07-08T04:14:10;7.88;;;4.07;;
69989;SDS011;57331;52.054;5.294;2023-07-08T04:16:50;10.07;;;4.18;;
69989;SDS011;57331;52.054;5.294;2023-07-08T04:19:23;10.20;;;3.85;;
69989;SDS011;57331;52.054;5.294;2023-07-08T04:21:51;6.93;;;3.80;;
69989;SDS011;57331;52.054;5.294;2023-07-08T04:24:19;8.93;;;3.85;;
69989;SDS011;57331;52.054;5.294;2023-07-08T04:26:46;7.30;;;3.90;;
69989;SDS011;57331;52.054;5.294;2023-07-08T04:29:16;9.48;;;4.10;;
69989;SDS011;57331;52.054;5.294;2023-07-08T04:31:44;8.50;;;3.83;;
69989;SDS011;57331;52.054;5.294;2023-07-08T04:34:13;9.10;;;4.22;;
69989;SDS011;57331;52.054;5.294;2023-07-08T04:36:40;10.10;;;3.42;;
69989;SDS011;57331;52.054;5.294;2023-07-08T04:39:08;7.70;;;3.53;;
69989;SDS011;57331;52.054;5.294;2023-07-08T04:41:36;9.00;;;4.30;;
69989;SDS011;57331;52.054;5.294;2023-07-08T04:44:07;8.73;;;4.45;;
69989;SDS011;57331;52.054;5.294;2023-07-08T04:49:06;10.45;;;4.30;;
69989;SDS011;57331;52.054;5.294;2023-07-08T04:51:36;7.50;;;3.97;;
69989;SDS011;57331;52.054;5.294;2023-07-08T04:54:03;7.22;;;3.83;;
69989;SDS011;57331;52.054;5.294;2023-07-08T04:56:40;11.50;;;3.85;;
69989;SDS011;57331;52.054;5.294;2023-07-08T04:59:13;7.38;;;3.92;;
69989;SDS011;57331;52.054;5.294;2023-07-08T05:01:44;8.90;;;3.95;;
69989;SDS011;57331;52.054;5.294;2023-07-08T05:04:16;8.60;;;3.65;;
69989;SDS011;57331;52.054;5.294;2023-07-08T05:06:44;10.48;;;3.90;;
69989;SDS011;57331;52.054;5.294;2023-07-08T05:09:12;6.97;;;3.72;;
69989;SDS011;57331;52.054;5.294;2023-07-08T05:11:42;10.35;;;3.88;;
69989;SDS011;57331;52.054;5.294;2023-07-08T05:14:10;11.02;;;4.05;;
69989;SDS011;57331;52.054;5.294;2023-07-08T05:16:39;8.90;;;3.90;;
69989;SDS011;57331;52.054;5.294;2023-07-08T05:19:06;8.38;;;3.80;;
69989;SDS011;57331;52.054;5.294;2023-07-08T05:21:34;10.70;;;4.30;;
69989;SDS011;57331;52.054;5.294;2023-07-08T05:24:02;10.20;;;4.40;;
69989;SDS011;57331;52.054;5.294;2023-07-08T05:26:30;17.30;;;4.30;;
69989;SDS011;57331;52.054;5.294;2023-07-08T05:28:58;13.30;;;4.00;;
69989;SDS011;57331;52.054;5.294;2023-07-08T05:31:25;8.25;;;3.92;;
69989;SDS011;57331;52.054;5.294;2023-07-08T05:34:12;8.45;;;3.70;;
69989;SDS011;57331;52.054;5.294;2023-07-08T05:36:39;9.55;;;3.50;;
69989;SDS011;57331;52.054;5.294;2023-07-08T05:39:06;10.15;;;3.65;;
69989;SDS011;57331;52.054;5.294;2023-07-08T05:41:34;10.63;;;3.90;;
69989;SDS011;57331;52.054;5.294;2023-07-08T05:44:00;7.57;;;3.45;;
69989;SDS011;57331;52.054;5.294;2023-07-08T05:46:27;9.68;;;4.13;;
69989;SDS011;57331;52.054;5.294;2023-07-08T05:48:55;7.70;;;3.88;;
69989;SDS011;57331;52.054;5.294;2023-07-08T05:51:26;8.43;;;3.35;;
69989;SDS011;57331;52.054;5.294;2023-07-08T05:53:53;7.80;;;3.55;;
69989;SDS011;57331;52.054;5.294;2023-07-08T05:56:20;8.00;;;3.50;;
69989;SDS011;57331;52.054;5.294;2023-07-08T05:58:47;7.45;;;3.55;;
69989;SDS011;57331;52.054;5.294;2023-07-08T06:01:14;9.05;;;3.88;;
69989;SDS011;57331;52.054;5.294;2023-07-08T06:03:41;8.65;;;4.22;;
69989;SDS011;57331;52.054;5.294;2023-07-08T06:06:08;10.02;;;3.60;;
69989;SDS011;57331;52.054;5.294;2023-07-08T06:08:36;10.88;;;3.90;;
69989;SDS011;57331;52.054;5.294;2023-07-08T06:11:03;6.95;;;3.70;;
69989;SDS011;57331;52.054;5.294;2023-07-08T06:13:30;7.28;;;3.63;;
69989;SDS011;57331;52.054;5.294;2023-07-08T06:15:57;9.30;;;3.67;;
69989;SDS011;57331;52.054;5.294;2023-07-08T06:18:24;8.27;;;3.80;;
69989;SDS011;57331;52.054;5.294;2023-07-08T06:20:55;8.43;;;3.60;;
69989;SDS011;57331;52.054;5.294;2023-07-08T06:23:23;7.68;;;3.50;;
69989;SDS011;57331;52.054;5.294;2023-07-08T06:25:51;7.70;;;3.72;;
69989;SDS011;57331;52.054;5.294;2023-07-08T06:28:18;10.07;;;4.07;;
69989;SDS011;57331;52.054;5.294;2023-07-08T06:30:46;7.25;;;3.63;;
69989;SDS011;57331;52.054;5.294;2023-07-08T06:33:13;8.95;;;3.40;;
69989;SDS011;57331;52.054;5.294;2023-07-08T06:35:40;12.93;;;3.53;;
69989;SDS011;57331;52.054;5.294;2023-07-08T06:38:08;8.40;;;3.58;;
69989;SDS011;57331;52.054;5.294;2023-07-08T06:40:35;9.47;;;3.67;;
69989;SDS011;57331;52.054;5.294;2023-07-08T06:43:02;19.63;;;7.07;;
69989;SDS011;57331;52.054;5.294;2023-07-08T06:45:45;7.78;;;3.53;;
69989;SDS011;57331;52.054;5.294;2023-07-08T06:48:12;7.88;;;3.50;;
69989;SDS011;57331;52.054;5.294;2023-07-08T06:50:41;13.02;;;3.95;;
69989;SDS011;57331;52.054;5.294;2023-07-08T06:53:11;7.13;;;3.43;;
69989;SDS011;57331;52.054;5.294;2023-07-08T06:55:38;10.15;;;3.53;;
69989;SDS011;57331;52.054;5.294;2023-07-08T06:58:05;9.68;;;3.55;;
69989;SDS011;57331;52.054;5.294;2023-07-08T07:00:32;7.05;;;3.72;;
69989;SDS011;57331;52.054;5.294;2023-07-08T07:02:59;9.18;;;3.63;;
69989;SDS011;57331;52.054;5.294;2023-07-08T07:05:27;11.37;;;4.10;;
69989;SDS011;57331;52.054;5.294;2023-07-08T07:07:54;9.82;;;3.63;;
69989;SDS011;57331;52.054;5.294;2023-07-08T07:10:22;8.52;;;3.85;;
69989;SDS011;57331;52.054;5.294;2023-07-08T07:12:50;10.27;;;3.38;;
69989;SDS011;57331;52.054;5.294;2023-07-08T07:15:17;9.40;;;3.55;;
69989;SDS011;57331;52.054;5.294;2023-07-08T07:17:44;12.67;;;4.00;;
69989;SDS011;57331;52.054;5.294;2023-07-08T07:20:11;7.13;;;3.53;;
69989;SDS011;57331;52.054;5.294;2023-07-08T07:22:39;7.28;;;3.50;;
69989;SDS011;57331;52.054;5.294;2023-07-08T07:25:06;10.57;;;3.70;;
69989;SDS011;57331;52.054;5.294;2023-07-08T07:27:34;9.00;;;3.40;;
69989;SDS011;57331;52.054;5.294;2023-07-08T07:30:01;8.00;;;3.40;;
69989;SDS011;57331;52.054;5.294;2023-07-08T07:32:29;16.20;;;3.40;;
69989;SDS011;57331;52.054;5.294;2023-07-08T07:34:58;6.95;;;3.35;;
69989;SDS011;57331;52.054;5.294;2023-07-08T07:37:26;7.35;;;3.83;;
69989;SDS011;57331;52.054;5.294;2023-07-08T07:39:53;8.88;;;3.67;;
69989;SDS011;57331;52.054;5.294;2023-07-08T07:42:19;7.20;;;3.20;;
69989;SDS011;57331;52.054;5.294;2023-07-08T07:44:46;6.97;;;3.15;;
69989;SDS011;57331;52.054;5.294;2023-07-08T07:47:14;6.97;;;3.38;;
69989;SDS011;57331;52.054;5.294;2023-07-08T07:49:41;8.32;;;3.45;;
69989;SDS011;57331;52.054;5.294;2023-07-08T07:52:08;9.80;;;3.70;;
69989;SDS011;57331;52.054;5.294;2023-07-08T07:54:38;10.50;;;3.40;;
69989;SDS011;57331;52.054;5.294;2023-07-08T07:57:05;7.80;;;3.80;;
69989;SDS011;57331;52.054;5.294;2023-07-08T07:59:32;7.82;;;3.38;;
69989;SDS011;57331;52.054;5.294;2023-07-08T08:01:59;8.95;;;3.75;;
69989;SDS011;57331;52.054;5.294;2023-07-08T08:04:26;16.23;;;6.38;;
69989;SDS011;57331;52.054;5.294;2023-07-08T08:06:53;8.40;;;3.93;;
69989;SDS011;57331;52.054;5.294;2023-07-08T08:09:20;9.23;;;4.80;;
69989;SDS011;57331;52.054;5.294;2023-07-08T08:11:47;9.15;;;3.95;;
69989;SDS011;57331;52.054;5.294;2023-07-08T08:14:15;9.52;;;4.47;;
69989;SDS011;57331;52.054;5.294;2023-07-08T08:16:42;8.68;;;3.95;;
69989;SDS011;57331;52.054;5.294;2023-07-08T08:19:09;10.23;;;4.10;;
69989;SDS011;57331;52.054;5.294;2023-07-08T08:21:36;9.82;;;3.92;;
69989;SDS011;57331;52.054;5.294;2023-07-08T08:24:03;8.32;;;3.90;;
69989;SDS011;57331;52.054;5.294;2023-07-08T08:26:30;8.95;;;4.00;;
69989;SDS011;57331;52.054;5.294;2023-07-08T08:28:57;9.50;;;4.22;;
69989;SDS011;57331;52.054;5.294;2023-07-08T08:31:24;10.00;;;3.90;;
69989;SDS011;57331;52.054;5.294;2023-07-08T08:33:52;9.23;;;4.30;;
69989;SDS011;57331;52.054;5.294;2023-07-08T08:36:19;10.73;;;3.72;;
69989;SDS011;57331;52.054;5.294;2023-07-08T08:38:47;8.13;;;4.32;;
69989;SDS011;57331;52.054;5.294;2023-07-08T08:41:18;7.20;;;3.90;;
69989;SDS011;57331;52.054;5.294;2023-07-08T08:43:57;9.10;;;4.20;;
69989;SDS011;57331;52.054;5.294;2023-07-08T08:51:51;11.00;;;4.35;;
69989;SDS011;57331;52.054;5.294;2023-07-08T08:54:19;10.32;;;4.53;;
69989;SDS011;57331;52.054;5.294;2023-07-08T08:57:06;7.27;;;4.13;;
69989;SDS011;57331;52.054;5.294;2023-07-08T08:59:51;10.02;;;4.40;;
69989;SDS011;57331;52.054;5.294;2023-07-08T09:05:11;8.35;;;4.47;;
69989;SDS011;57331;52.054;5.294;2023-07-08T09:10:57;8.90;;;4.30;;
69989;SDS011;57331;52.054;5.294;2023-07-08T09:13:34;9.18;;;4.32;;
69989;SDS011;57331;52.054;5.294;2023-07-08T09:18:54;13.40;;;4.30;;
69989;SDS011;57331;52.054;5.294;2023-07-08T09:21:51;9.15;;;4.22;;
69989;SDS011;57331;52.054;5.294;2023-07-08T09:27:04;10.60;;;4.68;;
69989;SDS011;57331;52.054;5.294;2023-07-08T09:29:31;9.85;;;4.72;;
69989;SDS011;57331;52.054;5.294;2023-07-08T09:32:00;10.18;;;4.50;;
69989;SDS011;57331;52.054;5.294;2023-07-08T09:34:44;10.75;;;4.68;;
69989;SDS011;57331;52.054;5.294;2023-07-08T09:37:28;8.97;;;4.63;;
69989;SDS011;57331;52.054;5.294;2023-07-08T09:39:57;11.10;;;4.80;;
69989;SDS011;57331;52.054;5.294;2023-07-08T09:42:30;10.20;;;5.05;;
69989;SDS011;57331;52.054;5.294;2023-07-08T09:45:03;10.45;;;4.88;;
69989;SDS011;57331;52.054;5.294;2023-07-08T09:47:37;9.48;;;4.82;;
69989;SDS011;57331;52.054;5.294;2023-07-08T09:50:20;11.57;;;4.90;;
69989;SDS011;57331;52.054;5.294;2023-07-08T09:52:50;12.07;;;4.90;;
69989;SDS011;57331;52.054;5.294;2023-07-08T09:55:21;10.25;;;4.70;;
69989;SDS011;57331;52.054;5.294;2023-07-08T09:57:48;13.70;;;5.40;;
69989;SDS011;57331;52.054;5.294;2023-07-08T10:00:18;10.57;;;5.53;;
69989;SDS011;57331;52.054;5.294;2023-07-08T10:02:56;12.80;;;5.37;;
69989;SDS011;57331;52.054;5.294;2023-07-08T10:05:29;11.30;;;5.18;;
69989;SDS011;57331;52.054;5.294;2023-07-08T10:08:15;10.38;;;4.88;;
69989;SDS011;57331;52.054;5.294;2023-07-08T10:10:45;11.50;;;5.05;;
69989;SDS011;57331;52.054;5.294;2023-07-08T10:13:28;10.00;;;5.28;;
69989;SDS011;57331;52.054;5.294;2023-07-08T10:18:40;13.30;;;5.95;;
69989;SDS011;57331;52.054;5.294;2023-07-08T10:21:08;12.60;;;5.70;;
69989;SDS011;57331;52.054;5.294;2023-07-08T10:23:57;11.27;;;5.30;;
69989;SDS011;57331;52.054;5.294;2023-07-08T10:26:36;11.68;;;5.20;;
69989;SDS011;57331;52.054;5.294;2023-07-08T10:29:24;14.67;;;5.40;;
69989;SDS011;57331;52.054;5.294;2023-07-08T10:35:16;12.02;;;5.60;;
69989;SDS011;57331;52.054;5.294;2023-07-08T10:43:40;13.60;;;5.70;;
69989;SDS011;57331;52.054;5.294;2023-07-08T10:54:45;9.55;;;5.60;;
69989;SDS011;57331;52.054;5.294;2023-07-08T11:05:46;11.18;;;5.68;;
69989;SDS011;57331;52.054;5.294;2023-07-08T11:08:37;11.25;;;5.40;;
69989;SDS011;57331;52.054;5.294;2023-07-08T11:11:15;12.47;;;5.93;;
69989;SDS011;57331;52.054;5.294;2023-07-08T11:14:19;9.65;;;5.05;;
69989;SDS011;57331;52.054;5.294;2023-07-08T12:01:51;11.07;;;6.43;;
69989;SDS011;57331;52.054;5.294;2023-07-08T12:04:25;11.68;;;6.32;;
69989;SDS011;57331;52.054;5.294;2023-07-08T12:07:17;13.30;;;6.00;;
69989;SDS011;57331;52.054;5.294;2023-07-08T12:09:56;13.63;;;6.47;;
69989;SDS011;57331;52.054;5.294;2023-07-08T12:12:34;10.65;;;6.25;;
69989;SDS011;57331;52.054;5.294;2023-07-08T12:17:37;11.93;;;6.20;;
69989;SDS011;57331;52.054;5.294;2023-07-08T12:20:06;14.43;;;6.40;;
69989;SDS011;57331;52.054;5.294;2023-07-08T12:22:44;12.50;;;6.10;;
69989;SDS011;57331;52.054;5.294;2023-07-08T12:25:15;11.02;;;6.18;;
69989;SDS011;57331;52.054;5.294;2023-07-08T12:27:45;10.60;;;6.40;;
69989;SDS011;57331;52.054;5.294;2023-07-08T12:30:13;13.07;;;6.88;;
69989;SDS011;57331;52.054;5.294;2023-07-08T12:32:41;13.60;;;6.88;;
69989;SDS011;57331;52.054;5.294;2023-07-08T12:35:17;11.15;;;6.43;;
69989;SDS011;57331;52.054;5.294;2023-07-08T12:37:48;11.48;;;6.28;;
69989;SDS011;57331;52.054;5.294;2023-07-08T12:40:17;14.70;;;6.20;;
69989;SDS011;57331;52.054;5.294;2023-07-08T12:42:44;13.70;;;6.55;;
69989;SDS011;57331;52.054;5.294;2023-07-08T12:45:13;13.65;;;6.00;;
69989;SDS011;57331;52.054;5.294;2023-07-08T12:47:45;13.63;;;6.38;;
69989;SDS011;57331;52.054;5.294;2023-07-08T12:50:12;12.43;;;5.97;;
69989;SDS011;57331;52.054;5.294;2023-07-08T12:52:41;13.23;;;6.03;;
69989;SDS011;57331;52.054;5.294;2023-07-08T12:55:13;11.50;;;6.20;;
69989;SDS011;57331;52.054;5.294;2023-07-08T12:57:42;11.38;;;5.70;;
69989;SDS011;57331;52.054;5.294;2023-07-08T13:00:16;10.48;;;6.07;;
69989;SDS011;57331;52.054;5.294;2023-07-08T13:05:42;10.70;;;6.03;;
69989;SDS011;57331;52.054;5.294;2023-07-08T13:08:14;11.55;;;6.40;;
69989;SDS011;57331;52.054;5.294;2023-07-08T13:10:42;14.77;;;6.07;;
69989;SDS011;57331;52.054;5.294;2023-07-08T13:13:15;13.50;;;6.38;;
69989;SDS011;57331;52.054;5.294;2023-07-08T13:15:51;10.27;;;5.93;;
69989;SDS011;57331;52.054;5.294;2023-07-08T13:18:20;12.77;;;6.20;;
69989;SDS011;57331;52.054;5.294;2023-07-08T13:20:52;14.20;;;5.70;;
69989;SDS011;57331;52.054;5.294;2023-07-08T13:23:21;12.15;;;6.18;;
69989;SDS011;57331;52.054;5.294;2023-07-08T13:25:49;10.32;;;6.10;;
69989;SDS011;57331;52.054;5.294;2023-07-08T13:28:24;10.50;;;5.85;;
69989;SDS011;57331;52.054;5.294;2023-07-08T13:33:32;11.25;;;5.93;;
69989;SDS011;57331;52.054;5.294;2023-07-08T13:36:03;11.70;;;5.28;;
69989;SDS011;57331;52.054;5.294;2023-07-08T13:38:32;11.25;;;5.55;;
69989;SDS011;57331;52.054;5.294;2023-07-08T13:41:02;11.52;;;5.55;;
69989;SDS011;57331;52.054;5.294;2023-07-08T13:43:32;11.30;;;5.90;;
69989;SDS011;57331;52.054;5.294;2023-07-08T13:46:01;11.10;;;5.45;;
69989;SDS011;57331;52.054;5.294;2023-07-08T13:53:41;10.95;;;5.53;;
69989;SDS011;57331;52.054;5.294;2023-07-08T13:58:43;11.68;;;5.85;;
69989;SDS011;57331;52.054;5.294;2023-07-08T14:01:22;12.00;;;5.50;;
69989;SDS011;57331;52.054;5.294;2023-07-08T14:03:52;10.00;;;5.65;;
69989;SDS011;57331;52.054;5.294;2023-07-08T14:06:24;9.30;;;5.65;;
69989;SDS011;57331;52.054;5.294;2023-07-08T14:08:54;12.27;;;5.97;;
69989;SDS011;57331;52.054;5.294;2023-07-08T14:11:23;12.45;;;5.85;;
69989;SDS011;57331;52.054;5.294;2023-07-08T14:13:50;11.20;;;5.88;;
69989;SDS011;57331;52.054;5.294;2023-07-08T14:16:24;13.50;;;6.15;;
69989;SDS011;57331;52.054;5.294;2023-07-08T14:18:55;13.45;;;5.95;;
69989;SDS011;57331;52.054;5.294;2023-07-08T14:21:23;10.67;;;5.73;;
69989;SDS011;57331;52.054;5.294;2023-07-08T14:23:50;14.25;;;5.82;;
69989;SDS011;57331;52.054;5.294;2023-07-08T14:26:17;12.85;;;5.97;;
69989;SDS011;57331;52.054;5.294;2023-07-08T14:28:44;11.13;;;5.75;;
69989;SDS011;57331;52.054;5.294;2023-07-08T14:31:11;9.98;;;5.43;;
69989;SDS011;57331;52.054;5.294;2023-07-08T14:33:41;9.80;;;5.53;;
69989;SDS011;57331;52.054;5.294;2023-07-08T14:36:11;13.68;;;5.60;;
69989;SDS011;57331;52.054;5.294;2023-07-08T14:38:38;14.38;;;6.32;;
69989;SDS011;57331;52.054;5.294;2023-07-08T14:41:05;11.27;;;5.55;;
69989;SDS011;57331;52.054;5.294;2023-07-08T14:43:34;12.07;;;6.07;;
69989;SDS011;57331;52.054;5.294;2023-07-08T14:46:05;12.00;;;6.30;;
69989;SDS011;57331;52.054;5.294;2023-07-08T14:48:36;13.00;;;5.85;;
69989;SDS011;57331;52.054;5.294;2023-07-08T14:51:03;12.45;;;5.78;;
69989;SDS011;57331;52.054;5.294;2023-07-08T14:53:32;12.32;;;5.60;;
69989;SDS011;57331;52.054;5.294;2023-07-08T14:55:59;11.13;;;5.70;;
69989;SDS011;57331;52.054;5.294;2023-07-08T14:58:32;11.10;;;5.87;;
69989;SDS011;57331;52.054;5.294;2023-07-08T15:01:00;11.35;;;5.60;;
69989;SDS011;57331;52.054;5.294;2023-07-08T15:03:37;9.68;;;5.78;;
69989;SDS011;57331;52.054;5.294;2023-07-08T15:06:07;11.68;;;5.70;;
69989;SDS011;57331;52.054;5.294;2023-07-08T15:08:36;14.93;;;6.45;;
69989;SDS011;57331;52.054;5.294;2023-07-08T15:11:04;10.10;;;5.77;;
69989;SDS011;57331;52.054;5.294;2023-07-08T15:13:33;12.50;;;6.03;;
69989;SDS011;57331;52.054;5.294;2023-07-08T15:16:01;9.98;;;5.75;;
69989;SDS011;57331;52.054;5.294;2023-07-08T15:18:28;11.57;;;5.32;;
69989;SDS011;57331;52.054;5.294;2023-07-08T15:20:55;12.48;;;6.00;;
69989;SDS011;57331;52.054;5.294;2023-07-08T15:23:22;17.13;;;5.93;;
69989;SDS011;57331;52.054;5.294;2023-07-08T15:25:49;10.68;;;5.47;;
69989;SDS011;57331;52.054;5.294;2023-07-08T15:28:17;14.60;;;5.80;;
69989;SDS011;57331;52.054;5.294;2023-07-08T15:30:49;10.88;;;5.63;;
69989;SDS011;57331;52.054;5.294;2023-07-08T15:33:16;12.30;;;5.65;;
69989;SDS011;57331;52.054;5.294;2023-07-08T15:35:43;11.17;;;5.80;;
69989;SDS011;57331;52.054;5.294;2023-07-08T15:38:10;12.05;;;5.97;;
69989;SDS011;57331;52.054;5.294;2023-07-08T15:40:37;13.68;;;5.40;;
69989;SDS011;57331;52.054;5.294;2023-07-08T15:43:05;11.43;;;5.80;;
69989;SDS011;57331;52.054;5.294;2023-07-08T15:45:39;11.45;;;5.47;;
69989;SDS011;57331;52.054;5.294;2023-07-08T15:48:13;11.20;;;5.23;;
69989;SDS011;57331;52.054;5.294;2023-07-08T15:50:41;13.13;;;5.60;;
69989;SDS011;57331;52.054;5.294;2023-07-08T15:53:09;12.13;;;5.93;;
69989;SDS011;57331;52.054;5.294;2023-07-08T15:55:40;28.27;;;6.10;;
69989;SDS011;57331;52.054;5.294;2023-07-08T15:58:24;11.80;;;5.88;;
69989;SDS011;57331;52.054;5.294;2023-07-08T16:00:54;12.07;;;5.37;;
69989;SDS011;57331;52.054;5.294;2023-07-08T16:03:23;11.50;;;5.68;;
69989;SDS011;57331;52.054;5.294;2023-07-08T16:05:52;13.55;;;5.78;;
69989;SDS011;57331;52.054;5.294;2023-07-08T16:08:20;11.82;;;5.38;;
69989;SDS011;57331;52.054;5.294;2023-07-08T16:10:52;11.77;;;5.50;;
69989;SDS011;57331;52.054;5.294;2023-07-08T16:13:34;10.33;;;5.73;;
69989;SDS011;57331;52.054;5.294;2023-07-08T16:16:03;12.60;;;5.45;;
69989;SDS011;57331;52.054;5.294;2023-07-08T16:18:31;11.25;;;5.53;;
69989;SDS011;57331;52.054;5.294;2023-07-08T16:20:58;11.32;;;6.22;;
69989;SDS011;57331;52.054;5.294;2023-07-08T16:23:26;11.90;;;6.05;;
69989;SDS011;57331;52.054;5.294;2023-07-08T16:25:53;12.67;;;5.93;;
69989;SDS011;57331;52.054;5.294;2023-07-08T16:31:08;12.85;;;6.00;;
69989;SDS011;57331;52.054;5.294;2023-07-08T16:33:37;10.27;;;5.88;;
69989;SDS011;57331;52.054;5.294;2023-07-08T16:36:04;13.45;;;6.10;;
69989;SDS011;57331;52.054;5.294;2023-07-08T16:38:32;12.67;;;6.00;;
69989;SDS011;57331;52.054;5.294;2023-07-08T16:40:59;10.20;;;5.70;;
69989;SDS011;57331;52.054;5.294;2023-07-08T16:43:29;13.38;;;6.00;;
69989;SDS011;57331;52.054;5.294;2023-07-08T16:46:00;14.00;;;5.70;;
69989;SDS011;57331;52.054;5.294;2023-07-08T16:48:27;19.98;;;6.15;;
69989;SDS011;57331;52.054;5.294;2023-07-08T16:50:54;13.80;;;6.30;;